Time;durP1;ratioP1;P1;durP2;ratioP2;P2;SDS_P1;SDS_P2;PMS_P1;PMS_P2;Temp;Humidity;BMP_temperature;BMP_pressure;BME280_temperature;BME280_humidity;BME280_pressure;Samples;Min_cycle;Max_cycle;Signal;HPM_P1;HPM_P2
2021/04/28 00:00:37;;;;;;;30.42;17.50;;;12.10;99.90;;;;;;5069810;28;20039;-48
2021/04/28 00:03:41;;;;;;;27.15;17.88;;;12.10;99.90;;;;;;5068574;28;20406;-48
2021/04/28 00:06:48;;;;;;;26.30;17.08;;;12.20;99.90;;;;;;5067832;28;20406;-47
2021/04/28 00:09:53;;;;;;;26.70;17.27;;;12.20;99.90;;;;;;5068999;28;20051;-47
2021/04/28 00:12:58;;;;;;;26.33;17.73;;;12.20;99.90;;;;;;5068322;28;20123;-47
2021/04/28 00:16:02;;;;;;;30.23;19.70;;;12.20;99.90;;;;;;5067789;28;20059;-50
2021/04/28 00:19:06;;;;;;;27.45;18.55;;;12.20;99.90;;;;;;5068805;28;20047;-47
2021/04/28 00:22:11;;;;;;;26.23;17.60;;;12.10;99.90;;;;;;5048785;28;20036;-47
2021/04/28 00:25:18;;;;;;;26.63;17.15;;;12.20;99.90;;;;;;5064748;28;20059;-46
2021/04/28 00:28:22;;;;;;;25.75;17.88;;;12.20;99.90;;;;;;5069007;28;20123;-46
2021/04/28 00:31:26;;;;;;;30.50;18.20;;;12.20;99.90;;;;;;5073455;28;20039;-47
2021/04/28 00:34:30;;;;;;;28.45;18.30;;;12.10;99.90;;;;;;5072189;28;20345;-49
2021/04/28 00:37:35;;;;;;;31.90;19.17;;;12.20;99.90;;;;;;5072042;28;20628;-47
2021/04/28 00:40:40;;;;;;;32.38;19.90;;;12.00;99.90;;;;;;5073142;28;20414;-49
2021/04/28 00:43:46;;;;;;;37.38;20.77;;;11.90;99.90;;;;;;5070686;28;20075;-48
2021/04/28 00:46:50;;;;;;;34.42;20.17;;;11.90;99.90;;;;;;5071185;28;20051;-48
2021/04/28 00:49:54;;;;;;;32.45;19.27;;;12.00;99.90;;;;;;5072437;28;20035;-46
2021/04/28 00:53:00;;;;;;;39.55;20.67;;;12.00;99.90;;;;;;5067727;28;20043;-47
2021/04/28 00:56:05;;;;;;;67.60;22.38;;;11.80;99.90;;;;;;5069982;28;20406;-46
2021/04/28 00:59:12;;;;;;;52.25;22.45;;;11.80;99.90;;;;;;5071493;28;20047;-47
2021/04/28 01:02:17;;;;;;;63.33;22.42;;;11.80;99.90;;;;;;5071069;28;20039;-46
2021/04/28 01:05:21;;;;;;;42.67;20.85;;;11.80;99.90;;;;;;5070881;28;20127;-47
2021/04/28 01:08:26;;;;;;;28.90;17.55;;;11.80;99.90;;;;;;5071578;28;20133;-46
2021/04/28 01:11:32;;;;;;;135.75;23.63;;;11.80;99.90;;;;;;5072217;28;20422;-46
2021/04/28 01:14:37;;;;;;;244.13;27.77;;;11.80;99.90;;;;;;5070879;28;20414;-47
2021/04/28 01:17:42;;;;;;;43.28;19.65;;;11.60;99.90;;;;;;5056957;28;20051;-47
2021/04/28 01:20:48;;;;;;;84.78;22.52;;;11.60;99.90;;;;;;5050921;28;20040;-47
2021/04/28 01:23:52;;;;;;;137.55;24.73;;;11.50;99.90;;;;;;5070568;28;20039;-47
2021/04/28 01:27:00;;;;;;;83.35;21.33;;;11.40;99.90;;;;;;5070580;28;20414;-46
2021/04/28 01:30:07;;;;;;;32.60;19.42;;;11.40;99.90;;;;;;5070801;28;20040;-49
2021/04/28 01:33:17;;;;;;;43.20;22.27;;;11.50;99.90;;;;;;5070766;28;20066;-47
2021/04/28 01:36:34;;;;;;;40.28;20.48;;;11.50;99.90;;;;;;5069346;28;20537;-47
2021/04/28 01:39:39;;;;;;;45.08;20.45;;;11.60;99.90;;;;;;5070183;28;20055;-46
2021/04/28 01:42:46;;;;;;;46.80;19.52;;;11.50;99.90;;;;;;5069653;28;20406;-46
2021/04/28 01:45:52;;;;;;;31.50;19.30;;;11.40;99.90;;;;;;5070767;28;20526;-47
2021/04/28 01:48:58;;;;;;;33.08;18.13;;;11.40;99.90;;;;;;5070424;28;20521;-46
2021/04/28 01:52:03;;;;;;;40.30;18.85;;;11.50;99.90;;;;;;5072242;28;20406;-46
2021/04/28 01:55:08;;;;;;;24.02;15.63;;;11.50;99.90;;;;;;5070724;28;20059;-49
2021/04/28 01:58:21;;;;;;;23.23;14.50;;;11.60;99.90;;;;;;5069725;28;20111;-47
2021/04/28 02:01:27;;;;;;;24.40;14.20;;;11.70;99.90;;;;;;5070789;28;20039;-46
2021/04/28 02:04:31;;;;;;;22.63;13.98;;;11.80;99.90;;;;;;5065624;28;20430;-46
2021/04/28 02:07:36;;;;;;;20.58;13.45;;;11.80;99.90;;;;;;5070043;28;20063;-46
2021/04/28 02:10:40;;;;;;;27.48;15.25;;;11.80;99.90;;;;;;5071617;28;20050;-46
2021/04/28 02:13:50;;;;;;;20.80;13.35;;;11.80;99.90;;;;;;5069302;28;20526;-47
2021/04/28 02:17:19;;;;;;;38.35;16.30;;;11.70;99.90;;;;;;5066184;28;20064;-46
2021/04/28 02:20:26;;;;;;;251.32;23.40;;;11.70;99.90;;;;;;5069952;28;20055;-48
2021/04/28 02:23:46;;;;;;;212.07;22.95;;;11.60;99.90;;;;;;5069466;28;20047;-46
2021/04/28 02:26:56;;;;;;;326.50;26.20;;;11.50;99.90;;;;;;5069068;28;20044;-47
2021/04/28 02:30:04;;;;;;;214.77;20.25;;;11.50;99.90;;;;;;5068460;28;20411;-46
2021/04/28 02:33:08;;;;;;;145.38;20.23;;;11.30;99.90;;;;;;5068685;28;20229;-47
2021/04/28 02:36:54;;;;;;;48.30;11.70;;;11.30;99.90;;;;;;5065600;28;20404;-50
2021/04/28 02:40:17;;;;;;;111.55;13.43;;;11.40;99.90;;;;;;5067030;28;20044;-51
2021/04/28 02:43:23;;;;;;;107.15;14.07;;;11.50;99.90;;;;;;5069706;28;20522;-49
2021/04/28 02:46:40;;;;;;;161.43;17.65;;;11.60;99.90;;;;;;5068213;28;20044;-51
2021/04/28 02:49:45;;;;;;;76.03;12.55;;;11.70;99.90;;;;;;5069178;28;20044;-49
2021/04/28 02:53:20;;;;;;;26.83;12.27;;;11.70;99.90;;;;;;5068814;28;20411;-53
2021/04/28 02:56:30;;;;;;;73.45;14.20;;;11.70;99.90;;;;;;5069164;28;20051;-48
2021/04/28 02:59:34;;;;;;;246.45;22.60;;;11.60;99.90;;;;;;5071557;28;20047;-47
2021/04/28 03:02:41;;;;;;;276.67;19.30;;;11.50;99.90;;;;;;5068275;28;20051;-50
2021/04/28 03:05:53;;;;;;;103.32;15.20;;;11.50;99.90;;;;;;5067955;28;20051;-50
2021/04/28 03:09:06;;;;;;;262.60;20.90;;;11.50;99.90;;;;;;5068996;28;20067;-51
2021/04/28 03:12:16;;;;;;;83.45;12.95;;;11.50;99.90;;;;;;5068805;28;20043;-51
2021/04/28 03:15:27;;;;;;;208.10;16.80;;;11.50;99.90;;;;;;5068985;28;20036;-48
2021/04/28 03:18:35;;;;;;;432.40;25.67;;;11.50;99.90;;;;;;5071171;28;20044;-47
2021/04/28 03:21:46;;;;;;;180.38;15.70;;;11.30;99.90;;;;;;5069964;28;20047;-47
2021/04/28 03:24:52;;;;;;;189.57;17.92;;;11.20;99.90;;;;;;5069172;28;20430;-50
2021/04/28 03:27:57;;;;;;;20.20;10.45;;;11.10;99.90;;;;;;5070195;28;20039;-51
2021/04/28 03:31:01;;;;;;;14.60;8.45;;;11.00;99.90;;;;;;5069973;28;20039;-48
2021/04/28 03:34:07;;;;;;;14.73;10.52;;;10.90;99.90;;;;;;5064742;28;20043;-49
2021/04/28 03:37:12;;;;;;;12.05;8.65;;;10.90;99.90;;;;;;5067349;28;20047;-49
2021/04/28 03:40:23;;;;;;;10.65;7.78;;;11.10;99.90;;;;;;5069221;28;20441;-48
2021/04/28 03:43:28;;;;;;;10.07;7.82;;;11.20;99.90;;;;;;5068009;28;20035;-50
2021/04/28 03:46:33;;;;;;;11.45;7.53;;;11.20;99.90;;;;;;5068883;28;20048;-49
2021/04/28 03:49:37;;;;;;;7.55;5.90;;;11.30;99.90;;;;;;5067870;28;20044;-46
2021/04/28 03:52:42;;;;;;;7.80;5.70;;;11.40;99.90;;;;;;5068669;28;20047;-47
2021/04/28 03:56:16;;;;;;;9.32;6.80;;;11.50;99.90;;;;;;5061809;28;20052;-51
2021/04/28 03:59:21;;;;;;;9.35;6.80;;;11.40;99.90;;;;;;5070819;28;20450;-48
2021/04/28 04:02:30;;;;;;;9.52;6.28;;;11.40;99.90;;;;;;5067995;28;20043;-47
2021/04/28 04:05:53;;;;;;;9.45;6.53;;;11.50;99.90;;;;;;5067563;28;20415;-48
2021/04/28 04:09:11;;;;;;;12.63;6.80;;;11.40;99.90;;;;;;5067720;28;20044;-49
2021/04/28 04:12:17;;;;;;;34.85;8.30;;;11.50;99.90;;;;;;5068590;28;20534;-50
2021/04/28 04:15:33;;;;;;;14.65;8.50;;;11.40;99.90;;;;;;5067435;28;20407;-48
2021/04/28 04:18:37;;;;;;;60.42;9.85;;;11.40;99.90;;;;;;5068143;28;20047;-51
2021/04/28 04:21:42;;;;;;;33.90;9.15;;;11.40;99.90;;;;;;5066900;28;20039;-48
2021/04/28 04:25:09;;;;;;;21.83;8.10;;;11.40;99.90;;;;;;5068048;28;20533;-47
2021/04/28 04:28:14;;;;;;;479.95;25.13;;;11.30;99.90;;;;;;5067212;28;20059;-49
2021/04/28 04:31:25;;;;;;;326.77;20.17;;;11.20;99.90;;;;;;5067729;28;20039;-47
2021/04/28 04:34:50;;;;;;;155.98;14.15;;;11.10;99.90;;;;;;5067212;28;20043;-51
2021/04/28 04:38:13;;;;;;;192.90;17.27;;;11.20;99.90;;;;;;5068814;28;20043;-53
2021/04/28 04:41:47;;;;;;;17.85;8.43;;;11.10;99.90;;;;;;5067776;28;20048;-50
2021/04/28 04:45:10;;;;;;;20.87;8.77;;;11.30;99.90;;;;;;5066709;28;20045;-53
2021/04/28 04:48:14;;;;;;;73.47;11.13;;;11.30;99.90;;;;;;5056598;28;20274;-47
2021/04/28 04:51:17;;;;;;;37.97;9.18;;;11.40;99.90;;;;;;5067870;28;20042;-47
2021/04/28 04:54:22;;;;;;;10.80;7.13;;;11.40;99.90;;;;;;5067348;28;20040;-49
2021/04/28 04:57:28;;;;;;;12.45;8.20;;;11.50;99.90;;;;;;5067077;28;20051;-50
2021/04/28 05:00:32;;;;;;;9.73;6.95;;;11.50;99.90;;;;;;5068261;28;20427;-48
2021/04/28 05:03:36;;;;;;;19.13;8.20;;;11.60;99.90;;;;;;5062248;28;20044;-48
2021/04/28 05:06:40;;;;;;;12.95;7.40;;;11.60;99.90;;;;;;5050148;28;20095;-52
2021/04/28 05:09:44;;;;;;;9.98;7.50;;;11.60;99.90;;;;;;5047737;28;20040;-50
2021/04/28 05:12:48;;;;;;;44.17;10.23;;;11.70;99.90;;;;;;5052208;28;20048;-48
2021/04/28 05:15:52;;;;;;;43.85;8.00;;;11.70;99.90;;;;;;5046230;28;20044;-49
2021/04/28 05:18:56;;;;;;;73.32;11.07;;;11.70;99.90;;;;;;5051010;28;20040;-53
2021/04/28 05:22:01;;;;;;;136.35;12.93;;;11.60;99.90;;;;;;5054307;28;20048;-47
2021/04/28 05:25:08;;;;;;;65.45;7.40;;;11.50;99.90;;;;;;5065890;28;20047;-54
2021/04/28 05:28:16;;;;;;;4.80;4.22;;;11.60;99.90;;;;;;5058987;28;20128;-47
2021/04/28 05:31:20;;;;;;;5.53;4.22;;;11.50;99.90;;;;;;5051345;28;20534;-48
2021/04/28 05:34:25;;;;;;;5.45;4.32;;;11.50;99.90;;;;;;5058125;28;20407;-49
2021/04/28 05:37:30;;;;;;;4.30;3.88;;;11.60;99.90;;;;;;5057228;28;20063;-49
2021/04/28 05:40:34;;;;;;;7.40;4.72;;;11.70;99.90;;;;;;5065415;28;20055;-47
2021/04/28 05:43:38;;;;;;;14.95;5.28;;;11.70;99.90;;;;;;5064593;28;20435;-49
2021/04/28 05:46:42;;;;;;;11.88;5.28;;;11.50;99.90;;;;;;5054922;28;20731;-50
2021/04/28 05:49:48;;;;;;;6.03;4.72;;;11.50;99.90;;;;;;5050330;28;20067;-51
2021/04/28 05:52:52;;;;;;;3.85;3.42;;;11.30;99.90;;;;;;5057001;28;20060;-51
2021/04/28 05:55:55;;;;;;;49.30;6.38;;;11.40;99.90;;;;;;5056365;28;20298;-47
2021/04/28 05:58:59;;;;;;;7.13;4.78;;;11.40;99.90;;;;;;5055698;28;20028;-47
2021/04/28 06:02:04;;;;;;;88.93;9.50;;;11.40;99.90;;;;;;5061990;28;20044;-49
2021/04/28 06:05:09;;;;;;;6.40;4.72;;;11.50;99.90;;;;;;5063561;28;20091;-51
2021/04/28 06:08:16;;;;;;;5.20;4.18;;;11.60;99.90;;;;;;5061123;28;20051;-52
2021/04/28 06:11:21;;;;;;;5.25;3.47;;;11.60;99.90;;;;;;5054486;28;20043;-48
2021/04/28 06:14:25;;;;;;;3.83;3.30;;;11.80;99.90;;;;;;5066338;28;20056;-50
2021/04/28 06:17:30;;;;;;;6.85;3.53;;;11.90;99.90;;;;;;5051604;28;20043;-47
2021/04/28 06:20:35;;;;;;;4.90;3.03;;;12.10;99.90;;;;;;5054060;28;20040;-50
2021/04/28 06:23:39;;;;;;;2.97;2.45;;;12.40;99.90;;;;;;5054617;28;20427;-52
2021/04/28 06:26:46;;;;;;;2.42;2.08;;;12.60;99.90;;;;;;5051642;28;20048;-47
2021/04/28 06:29:50;;;;;;;2.28;2.00;;;12.70;99.90;;;;;;5050470;28;20039;-47
2021/04/28 06:32:54;;;;;;;3.00;2.70;;;13.00;99.90;;;;;;5055251;28;20040;-50
2021/04/28 06:35:58;;;;;;;2.50;2.30;;;13.10;99.90;;;;;;5056077;28;20514;-48
2021/04/28 06:39:04;;;;;;;2.83;2.53;;;13.20;99.90;;;;;;5062255;28;20040;-52
2021/04/28 06:42:08;;;;;;;3.20;2.60;;;13.10;99.90;;;;;;5053916;28;20032;-47
2021/04/28 06:45:13;;;;;;;4.90;3.47;;;13.10;99.90;;;;;;5055647;28;20058;-47
2021/04/28 06:48:17;;;;;;;3.55;2.65;;;13.00;99.90;;;;;;5052920;28;20040;-48
2021/04/28 06:51:21;;;;;;;2.85;2.50;;;12.80;99.90;;;;;;5053300;28;20043;-47
2021/04/28 06:54:25;;;;;;;2.72;2.40;;;12.90;99.90;;;;;;5054734;28;20060;-49
2021/04/28 06:57:29;;;;;;;2.22;2.03;;;12.90;99.90;;;;;;5053298;28;20055;-47
2021/04/28 07:00:34;;;;;;;4.57;2.30;;;13.00;99.90;;;;;;5068356;28;20063;-48
2021/04/28 07:03:38;;;;;;;4.68;3.60;;;12.70;99.90;;;;;;5052557;28;20407;-46
2021/04/28 07:06:42;;;;;;;5.10;3.70;;;12.30;99.90;;;;;;5051209;28;20043;-47
2021/04/28 07:09:46;;;;;;;6.05;4.63;;;12.00;99.90;;;;;;5066246;28;20028;-46
2021/04/28 07:12:51;;;;;;;4.03;3.33;;;12.00;99.90;;;;;;5053808;28;20052;-47
2021/04/28 07:15:56;;;;;;;6.00;4.43;;;11.80;99.90;;;;;;5065096;28;20434;-46
2021/04/28 07:19:00;;;;;;;4.93;4.40;;;11.70;99.90;;;;;;5053757;28;20399;-48
2021/04/28 07:22:05;;;;;;;7.85;4.50;;;11.90;99.90;;;;;;5053269;28;20044;-46
2021/04/28 07:25:11;;;;;;;8.38;5.53;;;11.90;99.90;;;;;;5060634;28;20074;-49
2021/04/28 07:28:15;;;;;;;5.93;4.60;;;12.00;99.90;;;;;;5055283;28;20040;-46
2021/04/28 07:31:21;;;;;;;6.70;5.38;;;11.90;99.90;;;;;;5051450;28;20036;-49
2021/04/28 07:34:25;;;;;;;4.65;4.07;;;12.10;99.90;;;;;;5061849;28;20055;-50
2021/04/28 07:37:29;;;;;;;5.70;4.30;;;12.20;99.90;;;;;;5052685;28;20044;-49
2021/04/28 07:40:34;;;;;;;4.10;3.55;;;12.30;99.90;;;;;;5052084;28;20040;-48
2021/04/28 07:43:38;;;;;;;10.02;6.05;;;12.50;99.90;;;;;;5055874;28;20051;-49
2021/04/28 07:46:43;;;;;;;15.07;6.25;;;12.70;99.90;;;;;;5052593;28;20036;-47
2021/04/28 07:49:47;;;;;;;9.65;7.07;;;12.60;99.90;;;;;;5050976;28;20056;-48
2021/04/28 07:52:51;;;;;;;36.25;7.55;;;12.50;99.90;;;;;;5052951;28;20035;-47
2021/04/28 07:55:55;;;;;;;7.93;6.80;;;12.30;99.90;;;;;;5055608;28;20071;-47
2021/04/28 07:59:00;;;;;;;7.60;6.68;;;12.00;99.90;;;;;;5049094;28;20049;-47
2021/04/28 08:02:05;;;;;;;8.75;6.32;;;12.10;99.90;;;;;;5062266;28;20399;-47
2021/04/28 08:05:11;;;;;;;7.07;5.07;;;12.30;99.90;;;;;;5060287;28;20039;-47
2021/04/28 08:08:15;;;;;;;9.15;6.30;;;12.50;99.90;;;;;;5062448;28;20039;-46
2021/04/28 08:11:19;;;;;;;7.97;6.50;;;12.40;99.90;;;;;;5063256;28;20048;-47
2021/04/28 08:14:23;;;;;;;4.07;3.67;;;12.60;99.90;;;;;;5051890;28;20048;-48
2021/04/28 08:17:31;;;;;;;4.63;3.33;;;12.80;99.90;;;;;;5049021;28;20048;-48
2021/04/28 08:20:37;;;;;;;4.43;3.60;;;13.00;99.90;;;;;;5053050;28;20426;-50
2021/04/28 08:23:42;;;;;;;2.92;2.63;;;13.10;99.90;;;;;;5050499;28;20047;-47
2021/04/28 08:26:48;;;;;;;4.57;3.92;;;13.20;99.90;;;;;;5060652;28;20048;-48
2021/04/28 08:29:52;;;;;;;5.82;4.40;;;13.10;99.90;;;;;;5052451;28;20115;-49
2021/04/28 08:32:57;;;;;;;5.82;4.07;;;12.40;99.90;;;;;;5057108;28;20047;-47
2021/04/28 08:36:03;;;;;;;4.28;3.83;;;12.10;99.90;;;;;;5047742;28;20052;-47
2021/04/28 08:39:08;;;;;;;4.53;3.75;;;12.10;99.90;;;;;;5060671;28;20051;-47
2021/04/28 08:42:12;;;;;;;3.53;3.22;;;12.20;99.90;;;;;;5058972;28;20055;-48
2021/04/28 08:45:19;;;;;;;2.92;2.45;;;12.30;99.90;;;;;;5053375;28;20059;-47
2021/04/28 08:48:24;;;;;;;3.08;2.78;;;12.70;99.90;;;;;;5051545;28;20048;-47
2021/04/28 08:51:28;;;;;;;1.83;1.70;;;13.40;99.90;;;;;;5067730;28;20055;-48
2021/04/28 08:54:33;;;;;;;1.58;1.42;;;13.90;99.90;;;;;;5057695;28;20056;-48
2021/04/28 08:57:38;;;;;;;1.98;1.60;;;14.20;99.90;;;;;;5066134;28;20051;-48
2021/04/28 09:00:42;;;;;;;1.42;1.30;;;14.30;99.90;;;;;;5071011;28;20415;-48
2021/04/28 09:03:46;;;;;;;1.73;1.25;;;14.60;99.90;;;;;;5071668;28;20552;-47
2021/04/28 09:06:53;;;;;;;0.93;0.70;;;15.00;99.90;;;;;;5072482;28;20040;-47
2021/04/28 09:10:18;;;;;;;0.95;0.70;;;15.50;99.90;;;;;;5071321;28;20056;-48
2021/04/28 09:13:22;;;;;;;0.90;0.70;;;16.10;99.90;;;;;;5065289;28;20043;-51
2021/04/28 09:16:26;;;;;;;0.93;0.65;;;16.70;99.90;;;;;;5063088;28;20522;-47
2021/04/28 09:19:44;;;;;;;0.93;0.85;;;17.00;99.90;;;;;;5051472;28;20044;-48
2021/04/28 09:23:27;;;;;;;1.50;1.08;;;16.90;99.90;;;;;;5050795;28;20047;-47
2021/04/28 09:27:34;;;;;;;2.97;1.80;;;16.90;99.90;;;;;;5039023;28;20172;-48
2021/04/28 09:31:07;;;;;;;3.55;0.98;;;17.80;99.90;;;;;;5059469;28;20040;-47
2021/04/28 09:34:11;;;;;;;1.85;1.48;;;17.80;99.90;;;;;;5058089;28;20060;-49
2021/04/28 09:37:17;;;;;;;2.50;1.70;;;16.50;99.90;;;;;;5056585;28;20043;-48
2021/04/28 09:40:38;;;;;;;1.88;1.42;;;16.30;99.90;;;;;;5052494;28;20056;-48
2021/04/28 09:43:43;;;;;;;2.53;2.10;;;15.20;99.90;;;;;;5054117;28;20065;-49
2021/04/28 09:47:14;;;;;;;2.05;1.50;;;14.70;99.90;;;;;;5058138;28;20040;-50
2021/04/28 09:50:27;;;;;;;2.33;1.80;;;14.60;99.90;;;;;;5050661;28;20112;-47
2021/04/28 09:53:31;;;;;;;2.53;1.55;;;14.30;99.90;;;;;;5062764;28;20055;-47
2021/04/28 09:56:41;;;;;;;1.90;1.30;;;14.30;99.90;;;;;;5067305;28;20048;-47
2021/04/28 09:59:48;;;;;;;1.73;1.05;;;13.90;99.90;;;;;;5066012;28;20040;-47
2021/04/28 10:02:58;;;;;;;1.30;1.17;;;13.60;99.90;;;;;;5063086;28;20048;-46
2021/04/28 10:06:02;;;;;;;1.98;1.77;;;13.70;99.90;;;;;;5055458;28;20043;-48
2021/04/28 10:09:36;;;;;;;1.50;1.27;;;14.00;99.90;;;;;;5058232;28;20051;-47
2021/04/28 10:12:40;;;;;;;1.63;1.23;;;13.90;99.90;;;;;;5070373;28;20423;-48
2021/04/28 10:15:45;;;;;;;1.73;1.40;;;14.00;99.90;;;;;;5063239;28;20044;-49
2021/04/28 10:18:49;;;;;;;1.25;1.10;;;14.30;99.90;;;;;;5051167;28;20056;-47
2021/04/28 10:22:04;;;;;;;1.98;1.65;;;14.10;99.90;;;;;;5049589;28;20515;-48
2021/04/28 10:25:09;;;;;;;1.40;1.08;;;13.80;99.90;;;;;;5061342;28;20047;-48
2021/04/28 10:28:15;;;;;;;1.30;1.20;;;14.10;99.90;;;;;;5047907;28;20044;-47
2021/04/28 10:31:20;;;;;;;2.08;1.33;;;14.10;99.90;;;;;;5060997;28;20044;-48
2021/04/28 10:34:32;;;;;;;3.45;0.93;;;14.10;99.90;;;;;;5056744;28;20043;-47
2021/04/28 10:37:37;;;;;;;1.58;1.05;;;14.50;99.90;;;;;;5055066;28;20048;-50
2021/04/28 10:40:42;;;;;;;1.48;1.20;;;15.00;99.90;;;;;;5054753;28;20039;-50
2021/04/28 10:43:46;;;;;;;1.70;1.10;;;15.80;99.90;;;;;;5068026;28;20059;-49
2021/04/28 10:46:50;;;;;;;2.05;1.45;;;16.10;99.90;;;;;;5056549;28;20035;-48
2021/04/28 10:49:58;;;;;;;2.10;1.30;;;16.60;99.90;;;;;;5051591;28;20029;-49
2021/04/28 10:53:23;;;;;;;1.10;1.00;;;16.80;99.90;;;;;;5050335;28;20032;-47
2021/04/28 10:56:27;;;;;;;1.85;1.15;;;16.40;99.90;;;;;;5055800;28;20039;-50
2021/04/28 10:59:41;;;;;;;2.45;1.30;;;16.80;99.90;;;;;;5057573;28;20039;-49
2021/04/28 11:02:48;;;;;;;1.70;1.10;;;18.20;99.90;;;;;;5060755;28;20048;-54
2021/04/28 11:05:53;;;;;;;2.47;1.20;;;19.20;99.90;;;;;;5059236;28;20032;-52
2021/04/28 11:09:06;;;;;;;2.60;1.40;;;18.30;99.90;;;;;;5057327;28;20044;-50
2021/04/28 11:12:11;;;;;;;1.60;1.10;;;17.70;99.90;;;;;;5063866;28;20050;-50
2021/04/28 11:15:59;;;;;;;1.27;1.17;;;17.50;99.90;;;;;;5067790;28;20043;-51
2021/04/28 11:19:26;;;;;;;1.45;1.15;;;17.60;99.90;;;;;;5057348;28;20055;-53
2021/04/28 11:22:31;;;;;;;2.03;1.10;;;18.60;99.90;;;;;;5054941;28;20043;-53
2021/04/28 11:25:35;;;;;;;2.20;1.40;;;19.10;99.90;;;;;;5051204;28;20040;-50
2021/04/28 11:28:40;;;;;;;1.70;1.40;;;19.20;99.90;;;;;;5052367;28;20040;-51
2021/04/28 11:31:46;;;;;;;2.20;1.40;;;19.10;99.90;;;;;;5053510;28;20083;-48
2021/04/28 11:34:53;;;;;;;2.83;1.27;;;18.00;99.90;;;;;;5047327;28;20645;-51
2021/04/28 11:38:14;;;;;;;2.28;1.30;;;17.80;99.90;;;;;;5051488;28;20051;-54
2021/04/28 11:41:24;;;;;;;1.30;1.20;;;18.00;99.90;;;;;;5047726;28;20036;-52
2021/04/28 11:44:28;;;;;;;3.90;1.67;;;17.50;99.90;;;;;;5049159;28;20043;-53
2021/04/28 11:47:32;;;;;;;2.03;1.55;;;16.50;99.90;;;;;;5052447;28;20032;-50
2021/04/28 11:50:37;;;;;;;2.25;1.40;;;17.00;99.90;;;;;;5051167;28;20044;-50
2021/04/28 11:53:50;;;;;;;2.15;1.75;;;17.40;99.90;;;;;;5052622;28;20044;-53
2021/04/28 11:56:54;;;;;;;1.70;1.48;;;18.20;99.90;;;;;;5047949;28;20063;-52
2021/04/28 12:00:07;;;;;;;2.70;1.83;;;18.00;99.90;;;;;;5050290;28;20036;-51
2021/04/28 12:03:12;;;;;;;2.28;1.70;;;18.60;99.90;;;;;;5049406;28;20048;-53
2021/04/28 12:06:29;;;;;;;3.08;1.65;;;19.20;99.90;;;;;;5047582;28;20044;-49
2021/04/28 12:09:39;;;;;;;3.10;1.50;;;19.20;99.90;;;;;;5057987;28;20036;-54
2021/04/28 12:12:42;;;;;;;3.40;1.40;;;20.40;99.90;;;;;;5052701;28;20044;-52
2021/04/28 12:15:51;;;;;;;4.35;1.40;;;20.50;99.90;;;;;;5054879;28;20083;-52
2021/04/28 12:19:12;;;;;;;3.40;1.95;;;20.60;99.90;;;;;;5051551;28;21573;-49
2021/04/28 12:22:17;;;;;;;1.88;1.50;;;20.50;99.90;;;;;;5051571;28;20040;-52
2021/04/28 12:25:21;;;;;;;2.15;1.40;;;19.90;99.90;;;;;;5049966;28;20052;-52
2021/04/28 12:28:25;;;;;;;3.83;1.75;;;19.80;99.90;;;;;;5057470;28;20436;-51
2021/04/28 12:31:46;;;;;;;3.15;1.70;;;19.40;99.90;;;;;;5055169;28;20498;-54
2021/04/28 12:35:19;;;;;;;6.67;1.70;;;19.90;99.90;;;;;;5059656;28;20759;-51
2021/04/28 12:38:24;;;;;;;4.22;1.80;;;20.50;99.90;;;;;;5051235;28;20067;-54
2021/04/28 12:41:28;;;;;;;4.80;1.83;;;20.20;99.90;;;;;;5059680;28;20044;-50
2021/04/28 12:44:36;;;;;;;5.40;1.90;;;18.90;99.90;;;;;;5074878;28;20418;-53
2021/04/28 12:47:41;;;;;;;3.92;2.38;;;17.70;99.90;;;;;;5063805;28;20044;-52
2021/04/28 12:50:50;;;;;;;3.08;2.00;;;16.80;99.90;;;;;;5068021;28;20044;-48
2021/04/28 12:53:55;;;;;;;2.97;2.10;;;17.00;99.90;;;;;;5069884;28;20039;-47
2021/04/28 12:57:03;;;;;;;3.13;2.63;;;16.60;99.90;;;;;;5067035;28;20516;-52
2021/04/28 13:00:10;;;;;;;4.60;2.75;;;16.50;99.90;;;;;;5056715;28;20533;-50
2021/04/28 13:03:17;;;;;;;5.15;2.88;;;16.50;99.90;;;;;;5056639;28;20039;-52
2021/04/28 13:06:23;;;;;;;5.20;3.38;;;16.20;99.90;;;;;;5059719;28;20052;-52
2021/04/28 13:09:29;;;;;;;4.95;3.33;;;16.40;99.90;;;;;;5057540;28;20529;-48
2021/04/28 13:12:38;;;;;;;5.28;3.28;;;16.80;99.90;;;;;;5055013;28;20044;-51
2021/04/28 13:15:42;;;;;;;6.45;3.33;;;16.90;99.90;;;;;;5066979;28;20044;-48
2021/04/28 13:18:51;;;;;;;6.18;2.92;;;17.20;99.90;;;;;;5060021;28;20134;-51
2021/04/28 13:22:00;;;;;;;4.07;2.78;;;17.30;99.90;;;;;;5067014;28;20043;-54
2021/04/28 13:25:05;;;;;;;4.10;2.45;;;17.60;99.90;;;;;;5062545;28;20043;-52
2021/04/28 13:28:31;;;;;;;4.03;2.80;;;18.00;99.90;;;;;;5067402;28;20040;-54
2021/04/28 13:31:40;;;;;;;3.45;2.40;;;18.70;99.90;;;;;;5053825;28;20039;-54
2021/04/28 13:34:44;;;;;;;5.32;3.10;;;19.30;99.90;;;;;;5050570;28;20411;-53
2021/04/28 13:37:57;;;;;;;4.00;2.53;;;19.70;99.90;;;;;;5059224;28;20115;-49
2021/04/28 13:41:10;;;;;;;4.60;2.70;;;20.20;99.90;;;;;;5054896;28;20055;-49
2021/04/28 13:44:15;;;;;;;6.70;3.33;;;20.20;99.90;;;;;;5052839;28;20048;-47
2021/04/28 13:47:19;;;;;;;9.05;3.78;;;20.80;99.90;;;;;;5067571;28;20055;-48
2021/04/28 13:50:23;;;;;;;5.13;2.53;;;21.00;99.90;;;;;;5051760;28;20052;-48
2021/04/28 13:53:28;;;;;;;4.93;2.22;;;20.30;99.90;;;;;;5057405;28;20407;-54
2021/04/28 13:56:32;;;;;;;4.70;1.90;;;19.80;99.90;;;;;;5057535;28;20439;-53
2021/04/28 13:59:37;;;;;;;4.28;2.25;;;19.60;99.90;;;;;;5063345;28;20051;-48
2021/04/28 14:02:46;;;;;;;3.13;2.05;;;19.50;99.90;;;;;;5051370;28;20056;-51
2021/04/28 14:05:50;;;;;;;6.78;2.40;;;19.50;99.90;;;;;;5066001;28;20507;-48
2021/04/28 14:08:54;;;;;;;3.25;2.15;;;18.70;99.90;;;;;;5060972;28;20055;-50
2021/04/28 14:11:58;;;;;;;4.68;2.30;;;18.30;99.90;;;;;;5051351;28;20073;-48
2021/04/28 14:15:04;;;;;;;4.45;2.60;;;17.50;99.90;;;;;;5062048;28;20052;-48
2021/04/28 14:18:09;;;;;;;4.38;2.10;;;17.30;99.90;;;;;;5057124;28;20048;-50
2021/04/28 14:21:14;;;;;;;5.13;2.50;;;17.50;99.90;;;;;;5053137;28;20051;-49
2021/04/28 14:24:19;;;;;;;4.30;2.60;;;17.80;99.90;;;;;;5054554;28;20539;-49
2021/04/28 14:27:22;;;;;;;3.10;2.60;;;17.70;99.90;;;;;;5053723;28;20048;-49
2021/04/28 14:30:26;;;;;;;6.75;2.75;;;17.40;99.90;;;;;;5056155;28;20055;-48
2021/04/28 14:33:31;;;;;;;2.88;2.30;;;17.20;99.90;;;;;;5051003;28;20048;-51
2021/04/28 14:36:39;;;;;;;4.82;2.35;;;17.40;99.90;;;;;;5068825;28;20043;-48
2021/04/28 14:39:43;;;;;;;3.97;2.50;;;18.10;99.90;;;;;;5069848;28;20059;-51
2021/04/28 14:42:48;;;;;;;5.00;2.40;;;18.50;99.90;;;;;;5070588;28;20055;-52
2021/04/28 14:45:55;;;;;;;4.38;2.30;;;18.70;99.90;;;;;;5069467;28;20517;-48
2021/04/28 14:48:59;;;;;;;4.70;2.22;;;19.70;99.90;;;;;;5069166;28;20044;-51
2021/04/28 14:52:03;;;;;;;3.92;2.00;;;20.50;99.90;;;;;;5070597;28;20517;-48
2021/04/28 14:55:09;;;;;;;3.30;2.00;;;21.20;99.90;;;;;;5067962;28;20052;-48
2021/04/28 14:58:13;;;;;;;4.85;2.00;;;21.40;99.90;;;;;;5068744;28;20395;-48
2021/04/28 15:01:18;;;;;;;3.90;2.65;;;21.80;99.90;;;;;;5069772;28;20051;-48
2021/04/28 15:04:23;;;;;;;6.88;2.13;;;22.00;99.90;;;;;;5069611;28;20055;-52
2021/04/28 15:07:27;;;;;;;4.53;1.70;;;22.20;99.90;;;;;;5068717;28;20062;-48
2021/04/28 15:10:30;;;;;;;5.65;1.95;;;21.70;99.90;;;;;;5069235;28;20060;-50
2021/04/28 15:13:36;;;;;;;3.88;1.70;;;20.30;99.90;;;;;;5068877;28;20043;-52
2021/04/28 15:16:40;;;;;;;6.90;1.90;;;19.60;99.90;;;;;;5068345;28;20051;-48
2021/04/28 15:19:44;;;;;;;5.10;2.03;;;19.50;99.90;;;;;;5069421;28;20051;-51
2021/04/28 15:22:48;;;;;;;4.57;2.05;;;19.10;99.90;;;;;;5069845;28;20047;-49
2021/04/28 15:25:54;;;;;;;8.45;2.20;;;18.40;99.90;;;;;;5067934;28;20051;-51
2021/04/28 15:28:59;;;;;;;5.00;2.38;;;18.20;99.90;;;;;;5068432;28;20538;-50
2021/04/28 15:32:05;;;;;;;12.10;3.13;;;18.10;99.90;;;;;;5069935;28;20047;-47
2021/04/28 15:35:10;;;;;;;8.52;2.60;;;18.20;99.90;;;;;;5068534;28;20055;-48
2021/04/28 15:38:17;;;;;;;8.02;3.38;;;18.20;99.90;;;;;;5068405;28;20043;-50
2021/04/28 15:41:28;;;;;;;7.70;3.10;;;17.80;99.90;;;;;;5068903;28;20059;-48
2021/04/28 15:44:34;;;;;;;10.32;3.20;;;18.00;99.90;;;;;;5068137;28;20040;-52
2021/04/28 15:47:38;;;;;;;15.65;3.72;;;17.50;99.90;;;;;;5068313;28;20534;-48
2021/04/28 15:50:43;;;;;;;9.00;3.38;;;17.60;99.90;;;;;;5068190;28;20332;-49
2021/04/28 15:53:49;;;;;;;12.88;3.40;;;17.80;99.90;;;;;;5069119;28;20055;-52
2021/04/28 15:56:55;;;;;;;6.28;2.80;;;17.90;99.90;;;;;;5066845;28;20214;-48
2021/04/28 15:59:59;;;;;;;8.50;2.63;;;18.00;99.90;;;;;;5068005;28;20047;-50
2021/04/28 16:03:05;;;;;;;8.23;2.63;;;18.10;99.90;;;;;;5069693;28;20055;-48
2021/04/28 16:06:10;;;;;;;8.90;3.05;;;17.80;99.90;;;;;;5067756;28;20426;-48
2021/04/28 16:09:15;;;;;;;7.88;3.20;;;17.60;99.90;;;;;;5068112;28;20036;-48